createdAt,value
2023-01-26T00:04:03.117Z,17.67
2023-01-26T00:08:08.633Z,14.50
2023-01-26T00:12:13.682Z,17.00
2023-01-26T00:16:17.235Z,18.77
2023-01-26T00:20:20.874Z,17.50
2023-01-26T00:24:24.518Z,18.77
2023-01-26T00:28:30.033Z,18.97
2023-01-26T00:32:33.304Z,16.40
2023-01-26T00:36:37.814Z,17.80
2023-01-26T00:40:41.549Z,18.80
2023-01-26T00:44:46.672Z,19.80
2023-01-26T00:48:50.001Z,14.37
2023-01-26T00:52:53.907Z,17.83
2023-01-26T00:56:57.371Z,16.27
2023-01-26T01:01:02.381Z,16.13
2023-01-26T01:05:06.283Z,16.50
2023-01-26T01:09:10.654Z,16.53
2023-01-26T01:13:13.908Z,17.13
2023-01-26T01:17:18.777Z,15.50
2023-01-26T01:21:23.150Z,14.57
2023-01-26T01:25:28.905Z,15.00
2023-01-26T01:29:32.163Z,16.43
2023-01-26T01:33:37.314Z,14.73
2023-01-26T01:37:40.590Z,15.50
2023-01-26T01:41:44.014Z,12.80
2023-01-26T01:45:48.109Z,14.53
2023-01-26T01:49:55.486Z,15.80
2023-01-26T01:54:00.859Z,15.27
2023-01-26T01:58:06.444Z,14.63
2023-01-26T02:02:09.898Z,17.50
2023-01-26T02:06:17.538Z,15.60
2023-01-26T02:10:22.128Z,15.60
2023-01-26T02:14:27.686Z,14.63
2023-01-26T02:18:31.211Z,18.13
2023-01-26T02:22:44.623Z,15.77
2023-01-26T02:26:49.471Z,14.87
2023-01-26T02:30:55.966Z,16.57
2023-01-26T02:34:59.410Z,16.07
2023-01-26T02:39:23.523Z,15.80
2023-01-26T02:43:29.723Z,16.00
2023-01-26T02:47:33.053Z,16.60
2023-01-26T02:51:36.542Z,16.60
2023-01-26T02:55:39.845Z,15.53
2023-01-26T02:59:44.654Z,16.33
2023-01-26T03:03:48.357Z,16.10
2023-01-26T03:07:51.671Z,18.73
2023-01-26T03:11:55.130Z,15.20
2023-01-26T03:16:02.923Z,15.60
2023-01-26T03:20:25.773Z,17.43
2023-01-26T03:24:46.736Z,16.17
2023-01-26T03:28:50.004Z,17.70
2023-01-26T03:32:55.831Z,17.77
2023-01-26T03:36:59.309Z,15.67
2023-01-26T03:41:22.422Z,16.77
2023-01-26T03:45:43.445Z,16.10
2023-01-26T03:50:05.555Z,19.83
2023-01-26T03:54:26.569Z,17.67
2023-01-26T03:58:30.351Z,19.40
2023-01-26T04:02:51.659Z,22.03
2023-01-26T04:07:13.715Z,18.97
2023-01-26T04:11:17.821Z,17.90
2023-01-26T04:15:38.354Z,16.73
2023-01-26T04:19:59.321Z,23.10
2023-01-26T04:24:09.913Z,17.80
2023-01-26T04:28:13.579Z,18.00
2023-01-26T04:32:17.018Z,19.40
2023-01-26T04:36:20.286Z,18.27
2023-01-26T04:40:25.122Z,17.40
2023-01-26T04:44:28.535Z,18.90
2023-01-26T04:48:32.530Z,21.77
2023-01-26T04:52:35.861Z,19.67
2023-01-26T04:56:40.784Z,20.20
2023-01-26T05:00:44.436Z,22.93
2023-01-26T05:04:47.752Z,21.57
2023-01-26T05:08:51.181Z,19.77
2023-01-26T05:12:55.853Z,20.00
2023-01-26T05:17:01.774Z,22.53
2023-01-26T05:21:05.503Z,20.87
2023-01-26T05:25:09.845Z,24.07
2023-01-26T05:29:14.978Z,22.63
2023-01-26T05:33:22.133Z,21.43
2023-01-26T05:37:26.329Z,23.73
2023-01-26T05:41:29.840Z,21.00
2023-01-26T05:45:34.956Z,20.73
2023-01-26T05:49:38.848Z,20.77
2023-01-26T05:53:42.259Z,24.07
2023-01-26T05:57:45.794Z,27.47
2023-01-26T06:01:50.660Z,21.13
2023-01-26T06:05:55.372Z,23.07
2023-01-26T06:09:58.927Z,23.53
2023-01-26T06:14:02.390Z,21.03
2023-01-26T06:18:07.207Z,22.37
2023-01-26T06:22:11.231Z,19.00
2023-01-26T06:26:15.353Z,22.20
2023-01-26T06:30:19.360Z,20.30
2023-01-26T06:34:24.225Z,22.43
2023-01-26T06:38:27.617Z,20.87
2023-01-26T06:42:30.886Z,17.97
2023-01-26T06:46:35.262Z,19.63
2023-01-26T06:50:41.498Z,21.23
2023-01-26T06:54:44.899Z,21.70
2023-01-26T06:58:48.608Z,19.00
2023-01-26T07:02:51.930Z,18.30
2023-01-26T07:06:56.690Z,21.73
2023-01-26T07:10:59.944Z,21.70
2023-01-26T07:15:03.348Z,21.30
2023-01-26T07:19:08.062Z,21.43
2023-01-26T07:23:12.738Z,22.67
2023-01-26T07:27:17.194Z,19.87
2023-01-26T07:31:20.668Z,21.40
2023-01-26T07:35:24.183Z,21.07
2023-01-26T07:39:28.823Z,23.90
2023-01-26T07:43:34.630Z,20.53
2023-01-26T07:47:38.305Z,19.20
2023-01-26T07:51:41.976Z,20.80
2023-01-26T07:55:47.307Z,19.40
2023-01-26T07:59:50.765Z,21.63
2023-01-26T08:03:55.021Z,19.63
2023-01-26T08:07:59.712Z,20.10
2023-01-26T08:12:04.602Z,19.43
2023-01-26T08:16:12.339Z,19.10
2023-01-26T08:20:16.029Z,21.73
2023-01-26T08:24:19.487Z,21.70
2023-01-26T08:28:24.275Z,18.67
2023-01-26T08:32:27.942Z,17.07
2023-01-26T08:36:32.531Z,17.90
2023-01-26T08:40:36.058Z,16.63
2023-01-26T08:44:41.114Z,16.50
2023-01-26T08:48:44.635Z,19.30
2023-01-26T08:52:47.914Z,17.60
2023-01-26T08:56:51.496Z,17.13
2023-01-26T09:00:56.307Z,16.97
2023-01-26T09:04:59.776Z,16.03
2023-01-26T09:09:03.085Z,16.30
2023-01-26T09:13:06.809Z,17.27
2023-01-26T09:17:11.844Z,18.17
2023-01-26T09:21:15.175Z,17.60
2023-01-26T09:25:18.666Z,19.53
2023-01-26T09:29:22.218Z,16.83
2023-01-26T09:33:26.948Z,15.63
2023-01-26T09:37:31.412Z,15.90
2023-01-26T09:41:57.526Z,16.93
2023-01-26T09:46:09.151Z,16.43
2023-01-26T09:50:19.437Z,16.77
2023-01-26T09:54:29.738Z,16.93
2023-01-26T09:58:37.375Z,15.53
2023-01-26T10:02:50.995Z,15.63
2023-01-26T10:06:57.993Z,17.83
2023-01-26T10:11:04.338Z,16.70
2023-01-26T10:15:17.643Z,18.07
2023-01-26T10:19:29.064Z,16.30
2023-01-26T10:23:35.979Z,16.63
2023-01-26T10:27:41.506Z,16.93
2023-01-26T10:31:46.637Z,18.53
2023-01-26T10:35:50.275Z,15.67
2023-01-26T10:40:01.748Z,16.70
2023-01-26T10:44:23.218Z,17.03
2023-01-26T10:48:27.214Z,16.50
2023-01-26T10:52:30.660Z,16.07
2023-01-26T10:56:37.873Z,17.17
2023-01-26T11:00:42.941Z,16.13
2023-01-26T11:05:04.851Z,15.63
2023-01-26T11:09:13.000Z,15.67
2023-01-26T11:13:20.606Z,15.37
2023-01-26T11:17:26.971Z,14.10
2023-01-26T11:21:36.031Z,15.03
2023-01-26T11:26:04.582Z,12.97
2023-01-26T11:30:43.162Z,13.70
2023-01-26T11:34:53.625Z,15.10
2023-01-26T11:39:08.551Z,12.87
2023-01-26T11:43:27.875Z,13.53
2023-01-26T11:47:45.614Z,13.07
2023-01-26T11:52:05.395Z,11.87
2023-01-26T11:56:24.050Z,14.10
2023-01-26T12:00:34.877Z,12.67
2023-01-26T12:04:45.699Z,12.03
2023-01-26T12:08:54.199Z,12.33
2023-01-26T12:13:04.170Z,9.80
2023-01-26T12:17:33.548Z,11.60
2023-01-26T12:21:40.184Z,10.07
2023-01-26T12:25:51.986Z,11.50
2023-01-26T12:30:06.564Z,14.80
2023-01-26T12:34:13.253Z,11.60
2023-01-26T12:38:24.434Z,13.27
2023-01-26T12:42:35.282Z,11.77
2023-01-26T12:46:43.582Z,12.87
2023-01-26T12:50:52.287Z,11.37
2023-01-26T12:55:04.799Z,11.80
2023-01-26T12:59:38.731Z,12.53
2023-01-26T13:03:45.755Z,12.80
2023-01-26T13:07:49.053Z,12.00
2023-01-26T13:11:56.121Z,13.07
2023-01-26T13:16:36.137Z,14.87
2023-01-26T13:20:48.841Z,12.80
2023-01-26T13:24:58.526Z,14.70
2023-01-26T13:29:32.910Z,14.20
2023-01-26T13:33:36.412Z,14.10
2023-01-26T13:37:47.801Z,15.93
2023-01-26T13:41:51.117Z,15.77
2023-01-26T13:46:12.600Z,12.97
2023-01-26T13:50:24.107Z,11.33
2023-01-26T13:54:28.365Z,12.20
2023-01-26T13:58:31.929Z,13.13
2023-01-26T14:02:38.894Z,14.13
2023-01-26T14:06:46.805Z,16.23
2023-01-26T14:10:50.508Z,14.90
2023-01-26T14:14:57.202Z,13.57
2023-01-26T14:19:16.612Z,12.63
2023-01-26T14:23:20.737Z,12.43
2023-01-26T14:27:33.011Z,16.17
2023-01-26T14:31:38.425Z,16.50
2023-01-26T14:35:44.349Z,13.97
2023-01-26T14:39:48.330Z,14.60
2023-01-26T14:43:56.490Z,13.80
2023-01-26T14:48:05.284Z,14.23
2023-01-26T14:52:18.795Z,13.23
2023-01-26T14:56:29.239Z,13.30
2023-01-26T15:00:35.798Z,12.10
2023-01-26T15:04:41.788Z,14.27
2023-01-26T15:09:00.269Z,11.97
2023-01-26T15:13:18.864Z,13.70
2023-01-26T15:17:40.885Z,12.87
2023-01-26T15:21:44.486Z,13.33
2023-01-26T15:25:49.679Z,12.63
2023-01-26T15:29:59.979Z,13.60
2023-01-26T15:34:03.909Z,13.80
2023-01-26T15:38:10.926Z,15.13
2023-01-26T15:42:17.114Z,13.03
2023-01-26T15:46:20.537Z,14.63
2023-01-26T15:50:28.291Z,14.13
2023-01-26T15:54:31.833Z,16.77
2023-01-26T15:58:36.972Z,16.53
2023-01-26T16:02:40.720Z,15.43
2023-01-26T16:06:44.131Z,16.17
2023-01-26T16:10:48.537Z,15.70
2023-01-26T16:14:53.308Z,14.70
2023-01-26T16:18:57.811Z,15.40
2023-01-26T16:23:01.685Z,16.33
2023-01-26T16:27:05.796Z,15.30
2023-01-26T16:31:17.154Z,17.13
2023-01-26T16:35:22.343Z,16.77
2023-01-26T16:39:25.619Z,15.70
2023-01-26T16:43:29.049Z,14.27
2023-01-26T16:47:33.865Z,17.73
2023-01-26T16:51:40.138Z,16.90
2023-01-26T16:55:43.417Z,16.40
2023-01-26T16:59:47.116Z,15.00
2023-01-26T17:03:53.754Z,15.30
2023-01-26T17:07:57.318Z,14.03
2023-01-26T17:12:00.694Z,12.60
2023-01-26T17:16:06.614Z,13.77
2023-01-26T17:20:19.423Z,13.90
2023-01-26T17:24:23.408Z,14.33
2023-01-26T17:28:28.903Z,13.67
2023-01-26T17:32:32.729Z,13.10
2023-01-26T17:36:38.185Z,14.93
2023-01-26T17:40:42.148Z,13.10
2023-01-26T17:44:46.137Z,14.90
2023-01-26T17:48:50.675Z,12.23
2023-01-26T17:52:56.254Z,12.60
2023-01-26T17:57:02.643Z,11.70
2023-01-26T18:01:08.801Z,13.00
2023-01-26T18:05:12.799Z,12.40
2023-01-26T18:09:18.152Z,13.10
2023-01-26T18:13:22.361Z,12.50
2023-01-26T18:17:26.385Z,14.13
2023-01-26T18:21:32.462Z,12.10
2023-01-26T18:25:38.479Z,12.30
2023-01-26T18:29:44.000Z,12.60
2023-01-26T18:33:48.303Z,12.53
2023-01-26T18:37:52.201Z,11.40
2023-01-26T18:41:58.467Z,12.07
2023-01-26T18:46:03.848Z,11.30
2023-01-26T18:50:11.837Z,12.40
2023-01-26T18:54:16.552Z,13.13
2023-01-26T18:58:22.496Z,11.97
2023-01-26T19:02:27.477Z,12.33
2023-01-26T19:06:39.993Z,12.43
2023-01-26T19:11:11.749Z,12.43
2023-01-26T19:16:02.448Z,13.77
2023-01-26T19:20:26.970Z,10.50
2023-01-26T19:24:44.270Z,12.23
2023-01-26T19:29:01.458Z,11.53
2023-01-26T19:33:30.543Z,16.60
2023-01-26T19:37:42.613Z,10.30
2023-01-26T19:41:56.033Z,11.47
2023-01-26T19:46:03.832Z,13.33
2023-01-26T19:50:13.801Z,14.13
2023-01-26T19:54:21.387Z,14.70
2023-01-26T19:58:28.786Z,12.17
2023-01-26T20:02:35.836Z,13.33
2023-01-26T20:06:42.479Z,10.57
2023-01-26T20:15:27.058Z,8.97
2023-01-26T20:19:35.999Z,10.73
2023-01-26T20:23:53.669Z,11.93
2023-01-26T20:27:58.589Z,11.30
2023-01-26T20:32:05.103Z,11.83
2023-01-26T20:36:11.323Z,11.30
2023-01-26T20:40:21.666Z,13.43
2023-01-26T20:44:28.554Z,13.20
2023-01-26T20:48:36.172Z,14.10
2023-01-26T20:52:42.212Z,14.20
2023-01-26T20:56:50.749Z,12.50
2023-01-26T21:00:54.422Z,12.47
2023-01-26T21:05:01.290Z,12.07
2023-01-26T21:09:06.354Z,11.70
2023-01-26T21:13:13.221Z,12.77
2023-01-26T21:17:18.136Z,11.77
2023-01-26T21:21:23.322Z,10.70
2023-01-26T21:25:29.062Z,11.30
2023-01-26T21:29:34.856Z,10.27
2023-01-26T21:33:39.941Z,13.57
2023-01-26T21:37:44.254Z,9.60
2023-01-26T21:41:59.221Z,10.80
2023-01-26T21:46:05.281Z,13.07
2023-01-26T21:50:10.450Z,13.23
2023-01-26T21:54:14.413Z,11.50
2023-01-26T21:58:35.120Z,13.50
2023-01-26T22:02:41.252Z,13.87
2023-01-26T22:06:44.679Z,13.00
2023-01-26T22:10:54.792Z,13.17
2023-01-26T22:14:58.291Z,10.67
2023-01-26T22:19:03.872Z,12.70
2023-01-26T22:23:08.317Z,12.20
2023-01-26T22:27:11.706Z,11.80
2023-01-26T22:31:15.266Z,11.80
2023-01-26T22:35:20.345Z,13.10
2023-01-26T22:39:23.729Z,14.43
2023-01-26T22:43:27.569Z,13.87
2023-01-26T22:47:30.925Z,12.80
2023-01-26T22:51:37.661Z,13.77
2023-01-26T22:55:43.054Z,13.07
2023-01-26T22:59:46.344Z,12.47
2023-01-26T23:03:52.410Z,14.47
2023-01-26T23:07:57.057Z,15.63
2023-01-26T23:12:01.933Z,13.57
2023-01-26T23:16:05.828Z,13.30
2023-01-26T23:20:10.771Z,14.73
2023-01-26T23:24:15.764Z,16.10
2023-01-26T23:28:20.057Z,13.67
2023-01-26T23:32:23.598Z,13.87
2023-01-26T23:36:27.166Z,13.67
2023-01-26T23:40:31.887Z,13.03
2023-01-26T23:44:35.252Z,14.43
2023-01-26T23:48:38.936Z,12.33
2023-01-26T23:52:42.413Z,17.83
2023-01-26T23:56:47.160Z,12.83
